Time;durP1;ratioP1;P1;durP2;ratioP2;P2;SDS_P1;SDS_P2;PMS_P1;PMS_P2;Temp;Humidity;BMP_temperature;BMP_pressure;BME280_temperature;BME280_humidity;BME280_pressure;Samples;Min_cycle;Max_cycle;Signal;HPM_P1;HPM_P2
2023/05/03 00:00:07;;;;;;;;;;;;;;;6.77;68.52;101287.25;5072831;28;1719;-76
2023/05/03 00:02:34;;;;;;;;;;;;;;;6.76;68.68;101295.44;5076313;28;1747;-77
2023/05/03 00:05:00;;;;;;;;;;;;;;;6.75;68.42;101291.94;5078558;28;1618;-77
2023/05/03 00:07:27;;;;;;;;;;;;;;;6.75;68.50;101297.28;5075291;28;1902;-75
2023/05/03 00:09:53;;;;;;;;;;;;;;;6.74;68.67;101298.31;5072182;28;2015;-77
2023/05/03 00:12:20;;;;;;;;;;;;;;;6.74;68.65;101306.34;5075195;28;1814;-75
2023/05/03 00:14:46;;;;;;;;;;;;;;;6.72;68.73;101305.69;5079011;28;1932;-76
2023/05/03 00:17:13;;;;;;;;;;;;;;;6.71;68.42;101312.06;5073693;28;1620;-76
2023/05/03 00:19:41;;;;;;;;;;;;;;;6.71;68.60;101312.06;5084395;28;1581;-78
2023/05/03 00:22:08;;;;;;;;;;;;;;;6.70;68.36;101314.91;5072538;28;2045;-76
2023/05/03 00:24:34;;;;;;;;;;;;;;;6.69;68.35;101313.25;5091900;28;1618;-77
2023/05/03 00:27:01;;;;;;;;;;;;;;;6.69;68.31;101315.91;5074299;28;1978;-77
2023/05/03 00:29:27;;;;;;;;;;;;;;;6.67;68.15;101316.06;5070545;28;1814;-76
2023/05/03 00:31:54;;;;;;;;;;;;;;;6.66;68.53;101319.78;5069247;28;1597;-77
2023/05/03 00:34:20;;;;;;;;;;;;;;;6.66;68.62;101326.97;5076844;28;1662;-76
2023/05/03 00:36:47;;;;;;;;;;;;;;;6.65;68.46;101328.81;5069835;28;5323;-76
2023/05/03 00:39:13;;;;;;;;;;;;;;;6.65;68.43;101336.84;5078218;28;1736;-77
2023/05/03 00:41:40;;;;;;;;;;;;;;;6.64;68.39;101331.66;5071943;28;2019;-78
2023/05/03 00:44:06;;;;;;;;;;;;;;;6.63;68.57;101330.00;5069302;28;1984;-78
2023/05/03 00:46:33;;;;;;;;;;;;;;;6.63;68.52;101335.34;5071671;28;1918;-78
2023/05/03 00:49:00;;;;;;;;;;;;;;;6.61;68.48;101338.19;5072335;28;1664;-77
2023/05/03 00:51:26;;;;;;;;;;;;;;;6.62;68.12;101339.88;5075371;28;1627;-77
2023/05/03 00:53:53;;;;;;;;;;;;;;;6.64;68.47;101342.38;5074964;28;1593;-77
2023/05/03 00:56:21;;;;;;;;;;;;;;;6.60;68.50;101342.72;5071176;28;1901;-76
2023/05/03 00:58:48;;;;;;;;;;;;;;;6.63;68.34;101346.06;5073730;28;1696;-76
2023/05/03 01:01:15;;;;;;;;;;;;;;;6.65;68.22;101347.56;5075622;28;1793;-77
2023/05/03 01:03:45;;;;;;;;;;;;;;;6.58;68.29;101343.91;5072736;28;1897;-77
2023/05/03 01:06:11;;;;;;;;;;;;;;;6.56;68.19;101352.13;5077202;28;1952;-77
2023/05/03 01:08:38;;;;;;;;;;;;;;;6.60;68.09;101356.09;5072773;28;1604;-78
2023/05/03 01:11:04;;;;;;;;;;;;;;;6.56;68.30;101354.78;5080958;28;1878;-77
2023/05/03 01:13:31;;;;;;;;;;;;;;;6.68;67.80;101355.25;5072635;28;1857;-77
2023/05/03 01:15:57;;;;;;;;;;;;;;;6.62;68.06;101357.75;5071277;28;1635;-77
2023/05/03 01:18:25;;;;;;;;;;;;;;;6.51;68.30;101359.81;5071520;28;1520;-77
2023/05/03 01:20:51;;;;;;;;;;;;;;;6.73;67.63;101358.22;5074496;28;1900;-78
2023/05/03 01:23:18;;;;;;;;;;;;;;;6.81;66.99;101358.19;5074543;28;1715;-77
2023/05/03 01:25:44;;;;;;;;;;;;;;;6.78;66.80;101363.88;5071687;28;1906;-77
2023/05/03 01:28:11;;;;;;;;;;;;;;;6.83;66.66;101358.84;5071686;28;1674;-77
2023/05/03 01:30:37;;;;;;;;;;;;;;;6.75;67.14;101360.72;5070987;28;2000;-78
2023/05/03 01:33:04;;;;;;;;;;;;;;;6.90;66.62;101366.16;5073322;28;2198;-78
2023/05/03 01:35:30;;;;;;;;;;;;;;;7.13;65.69;101359.00;5076559;28;1815;-77
2023/05/03 01:37:57;;;;;;;;;;;;;;;6.82;66.85;101367.03;5067983;28;1676;-77
2023/05/03 01:40:24;;;;;;;;;;;;;;;6.75;66.63;101369.59;5072069;28;2171;-78
2023/05/03 01:42:51;;;;;;;;;;;;;;;6.98;65.96;101372.31;5073152;28;1921;-78
2023/05/03 01:45:18;;;;;;;;;;;;;;;6.83;66.22;101372.22;5071316;28;1961;-78
2023/05/03 01:47:44;;;;;;;;;;;;;;;6.86;66.48;101381.75;5073056;28;1914;-78
2023/05/03 01:50:11;;;;;;;;;;;;;;;7.11;65.32;101376.25;5078021;28;2022;-77
2023/05/03 01:52:38;;;;;;;;;;;;;;;6.69;66.70;101375.63;5070910;28;1712;-77
2023/05/03 01:55:04;;;;;;;;;;;;;;;6.76;66.20;101376.59;5072301;28;2234;-77
2023/05/03 01:57:31;;;;;;;;;;;;;;;6.88;66.09;101377.03;5069950;28;1673;-77
2023/05/03 01:59:57;;;;;;;;;;;;;;;6.92;65.52;101381.06;5069162;28;1947;-77
2023/05/03 02:02:24;;;;;;;;;;;;;;;6.81;66.21;101381.44;5072339;28;1546;-78
2023/05/03 02:04:51;;;;;;;;;;;;;;;6.66;66.67;101383.19;5076644;28;2012;-77
2023/05/03 02:07:18;;;;;;;;;;;;;;;6.63;66.40;101389.72;5079786;28;1910;-79
2023/05/03 02:09:44;;;;;;;;;;;;;;;6.82;66.11;101393.81;5071965;28;1959;-77
2023/05/03 02:12:11;;;;;;;;;;;;;;;6.89;65.80;101392.13;5071546;28;1701;-80
2023/05/03 02:14:38;;;;;;;;;;;;;;;6.88;65.49;101394.97;5071214;28;1818;-77
2023/05/03 02:17:07;;;;;;;;;;;;;;;6.67;66.16;101395.56;5071048;28;1743;-78
2023/05/03 02:19:33;;;;;;;;;;;;;;;6.71;66.44;101399.56;5071724;28;1956;-76
2023/05/03 02:22:00;;;;;;;;;;;;;;;6.89;65.66;101397.47;5076504;28;1693;-77
2023/05/03 02:24:26;;;;;;;;;;;;;;;6.77;65.75;101399.72;5070632;28;1992;-78
2023/05/03 02:26:53;;;;;;;;;;;;;;;6.68;66.19;101399.94;5071814;28;1975;-78
2023/05/03 02:29:19;;;;;;;;;;;;;;;6.76;65.65;101394.50;5070166;28;2086;-79
2023/05/03 02:31:46;;;;;;;;;;;;;;;6.75;65.90;101400.88;5070241;28;1743;-78
2023/05/03 02:34:12;;;;;;;;;;;;;;;6.63;66.39;101402.28;5072268;28;1708;-79
2023/05/03 02:36:39;;;;;;;;;;;;;;;6.56;66.32;101400.28;5052327;28;1981;-79
2023/05/03 02:39:06;;;;;;;;;;;;;;;6.53;66.58;101403.31;5052638;28;1853;-80
2023/05/03 02:41:32;;;;;;;;;;;;;;;6.73;65.93;101409.06;5053948;28;1638;-78
2023/05/03 02:43:59;;;;;;;;;;;;;;;6.69;65.94;101418.47;5065935;28;1568;-79
2023/05/03 02:46:26;;;;;;;;;;;;;;;6.51;66.07;101412.53;5067896;28;1972;-79
2023/05/03 02:48:52;;;;;;;;;;;;;;;6.50;66.48;101414.38;5051734;28;1854;-78
2023/05/03 02:51:19;;;;;;;;;;;;;;;6.54;66.25;101409.50;5052778;28;1970;-77
2023/05/03 02:53:46;;;;;;;;;;;;;;;6.40;66.30;101415.56;5058059;28;1721;-77
2023/05/03 02:56:12;;;;;;;;;;;;;;;6.54;66.21;101417.53;5053219;28;1501;-77
2023/05/03 02:58:39;;;;;;;;;;;;;;;6.40;66.67;101415.56;5050826;28;1903;-77
2023/05/03 03:01:05;;;;;;;;;;;;;;;6.46;66.45;101425.56;5050496;28;1631;-77
2023/05/03 03:03:32;;;;;;;;;;;;;;;6.44;66.37;101427.56;5066598;28;1724;-77
2023/05/03 03:05:58;;;;;;;;;;;;;;;6.31;66.93;101420.09;5046605;28;5038;-76
2023/05/03 03:08:25;;;;;;;;;;;;;;;6.25;66.84;101429.63;5061368;28;2491;-78
2023/05/03 03:10:51;;;;;;;;;;;;;;;6.26;66.77;101425.94;5053565;28;1841;-77
2023/05/03 03:13:18;;;;;;;;;;;;;;;6.27;66.72;101437.50;5057201;28;1600;-76
2023/05/03 03:15:44;;;;;;;;;;;;;;;6.21;67.07;101441.69;5053597;28;1755;-77
2023/05/03 03:18:11;;;;;;;;;;;;;;;6.32;66.41;101444.00;5058646;28;2011;-78
2023/05/03 03:20:37;;;;;;;;;;;;;;;6.27;66.48;101437.50;5052629;28;1580;-77
2023/05/03 03:23:04;;;;;;;;;;;;;;;6.22;67.07;101447.88;5056468;28;5211;-78
2023/05/03 03:25:30;;;;;;;;;;;;;;;6.16;67.08;101441.34;5053717;28;1905;-76
2023/05/03 03:27:57;;;;;;;;;;;;;;;6.20;66.71;101445.34;5054235;28;2044;-76
2023/05/03 03:30:24;;;;;;;;;;;;;;;6.18;66.82;101446.50;5057328;28;1603;-78
2023/05/03 03:32:51;;;;;;;;;;;;;;;6.14;66.88;101446.03;5061095;28;1886;-78
2023/05/03 03:35:17;;;;;;;;;;;;;;;6.10;67.05;101450.88;5057910;28;1512;-78
2023/05/03 03:37:44;;;;;;;;;;;;;;;6.18;66.53;101451.88;5057417;28;1916;-78
2023/05/03 03:40:10;;;;;;;;;;;;;;;6.16;66.92;101448.53;5060837;28;1460;-77
2023/05/03 03:42:37;;;;;;;;;;;;;;;6.29;65.96;101449.69;5062161;28;1814;-77
2023/05/03 03:45:06;;;;;;;;;;;;;;;6.22;66.39;101453.22;5067851;28;1830;-75
2023/05/03 03:47:32;;;;;;;;;;;;;;;6.12;66.56;101454.25;5079334;28;1906;-77
2023/05/03 03:49:59;;;;;;;;;;;;;;;6.10;66.44;101455.41;5059740;28;1781;-78
2023/05/03 03:52:25;;;;;;;;;;;;;;;6.08;66.69;101452.88;5056650;28;1849;-77
2023/05/03 03:54:52;;;;;;;;;;;;;;;6.11;66.46;101460.56;5059429;28;1781;-78
2023/05/03 03:57:18;;;;;;;;;;;;;;;6.20;66.24;101458.72;5063099;28;1870;-78
2023/05/03 03:59:45;;;;;;;;;;;;;;;6.08;66.72;101462.75;5061647;28;1521;-80
2023/05/03 04:02:12;;;;;;;;;;;;;;;6.07;66.68;101464.59;5071807;28;1509;-75
2023/05/03 04:04:38;;;;;;;;;;;;;;;6.03;66.68;101471.28;5067994;28;1817;-77
2023/05/03 04:07:05;;;;;;;;;;;;;;;6.10;66.32;101476.81;5062388;28;1914;-76
2023/05/03 04:09:32;;;;;;;;;;;;;;;6.10;66.42;101471.44;5056103;28;5179;-78
2023/05/03 04:11:58;;;;;;;;;;;;;;;6.06;66.26;101475.44;5063458;28;1636;-77
2023/05/03 04:14:25;;;;;;;;;;;;;;;6.01;66.40;101481.31;5065492;28;1621;-77
2023/05/03 04:16:51;;;;;;;;;;;;;;;5.97;66.60;101479.13;5063552;28;1409;-77
2023/05/03 04:19:18;;;;;;;;;;;;;;;6.03;66.32;101475.78;5071198;28;1421;-78
2023/05/03 04:21:45;;;;;;;;;;;;;;;6.02;66.57;101479.47;5061170;28;1479;-77
2023/05/03 04:24:12;;;;;;;;;;;;;;;6.02;66.37;101482.16;5067298;28;1572;-78
2023/05/03 04:26:39;;;;;;;;;;;;;;;5.95;66.83;101484.66;5065235;28;2001;-77
2023/05/03 04:29:07;;;;;;;;;;;;;;;5.90;66.79;101485.09;5066998;28;1884;-76
2023/05/03 04:31:33;;;;;;;;;;;;;;;5.90;66.59;101485.09;5068199;28;1776;-77
2023/05/03 04:34:00;;;;;;;;;;;;;;;5.96;66.37;101494.34;5070002;28;1667;-77
2023/05/03 04:36:28;;;;;;;;;;;;;;;5.91;66.44;101492.16;5071948;28;2078;-77
2023/05/03 04:38:55;;;;;;;;;;;;;;;5.96;66.38;101491.66;5065084;28;1523;-77
2023/05/03 04:41:23;;;;;;;;;;;;;;;5.96;66.35;101491.66;5067102;28;1521;-77
2023/05/03 04:43:49;;;;;;;;;;;;;;;6.05;65.96;101500.53;5072922;28;1505;-78
2023/05/03 04:46:17;;;;;;;;;;;;;;;5.94;66.22;101499.00;5070008;28;1733;-78
2023/05/03 04:48:43;;;;;;;;;;;;;;;5.90;66.45;101503.81;5076459;28;2014;-78
2023/05/03 04:51:10;;;;;;;;;;;;;;;5.98;66.21;101507.56;5079019;28;1698;-79
2023/05/03 04:53:37;;;;;;;;;;;;;;;5.94;66.12;101517.72;5067713;28;1528;-78
2023/05/03 04:56:03;;;;;;;;;;;;;;;5.82;66.61;101508.31;5063468;28;1841;-78
2023/05/03 04:58:30;;;;;;;;;;;;;;;5.88;66.52;101507.66;5067604;28;1986;-77
2023/05/03 05:00:56;;;;;;;;;;;;;;;5.83;66.63;101510.03;5061605;28;1521;-78
2023/05/03 05:03:23;;;;;;;;;;;;;;;5.86;66.47;101517.72;5057331;28;1580;-78
2023/05/03 05:05:50;;;;;;;;;;;;;;;5.79;66.54;101516.69;5073183;28;1729;-78
2023/05/03 05:08:16;;;;;;;;;;;;;;;5.78;66.56;101513.19;5075061;28;1981;-78
2023/05/03 05:10:43;;;;;;;;;;;;;;;5.81;66.41;101520.88;5075162;28;1898;-79
2023/05/03 05:13:09;;;;;;;;;;;;;;;5.77;66.70;101529.41;5073817;28;1711;-79
2023/05/03 05:15:36;;;;;;;;;;;;;;;5.83;66.25;101529.56;5077596;28;5143;-80
2023/05/03 05:18:02;;;;;;;;;;;;;;;5.84;66.15;101533.06;5076566;28;4560;-79
2023/05/03 05:20:29;;;;;;;;;;;;;;;5.87;66.06;101530.06;5065911;28;1673;-81
2023/05/03 05:22:56;;;;;;;;;;;;;;;5.78;66.12;101534.56;5069422;28;1632;-78
2023/05/03 05:25:22;;;;;;;;;;;;;;;5.86;66.12;101536.44;5078402;28;2023;-81
2023/05/03 05:27:49;;;;;;;;;;;;;;;5.81;66.09;101536.06;5079808;28;1909;-79
2023/05/03 05:30:16;;;;;;;;;;;;;;;5.78;66.09;101539.91;5076558;28;1724;-79
2023/05/03 05:32:42;;;;;;;;;;;;;;;5.76;66.22;101544.56;5079007;28;1913;-79
2023/05/03 05:35:09;;;;;;;;;;;;;;;5.80;66.15;101545.09;5076637;28;1659;-81
2023/05/03 05:37:35;;;;;;;;;;;;;;;5.78;65.97;101547.94;5080039;28;1834;-80
2023/05/03 05:40:03;;;;;;;;;;;;;;;5.75;66.27;101547.44;5079902;28;1046;-79
2023/05/03 05:42:29;;;;;;;;;;;;;;;5.86;66.29;101557.81;5085169;28;2076;-79
2023/05/03 05:44:56;;;;;;;;;;;;;;;5.78;66.44;101552.44;5080347;28;1071;-81
2023/05/03 05:47:22;;;;;;;;;;;;;;;5.80;66.07;101553.97;5079546;28;1985;-81
2023/05/03 05:49:49;;;;;;;;;;;;;;;5.78;66.00;101553.28;5085151;28;1669;-81
2023/05/03 05:52:17;;;;;;;;;;;;;;;5.73;66.09;101558.28;5079762;28;1988;-79
2023/05/03 05:54:43;;;;;;;;;;;;;;;5.83;66.14;101548.28;5073689;28;1559;-79
2023/05/03 05:57:11;;;;;;;;;;;;;;;5.97;65.59;101556.69;5058532;28;1691;-80
2023/05/03 05:59:38;;;;;;;;;;;;;;;5.86;65.61;101558.66;5060538;28;1557;-80
2023/05/03 06:02:04;;;;;;;;;;;;;;;5.76;65.85;101565.97;5072903;28;1897;-79
2023/05/03 06:04:31;;;;;;;;;;;;;;;5.81;65.61;101557.47;5065319;28;1848;-78
2023/05/03 06:06:57;;;;;;;;;;;;;;;5.81;65.56;101568.16;5060340;28;1996;-79
2023/05/03 06:09:24;;;;;;;;;;;;;;;5.72;66.02;101572.66;5063495;28;1606;-80
2023/05/03 06:11:51;;;;;;;;;;;;;;;5.72;66.08;101571.81;5064124;28;1912;-82
2023/05/03 06:14:19;;;;;;;;;;;;;;;5.84;65.83;101574.00;5062009;28;1662;-80
2023/05/03 06:16:46;;;;;;;;;;;;;;;5.73;66.04;101584.16;5060022;28;5221;-82
2023/05/03 06:19:13;;;;;;;;;;;;;;;5.79;65.74;101579.00;5067761;28;1614;-82
2023/05/03 06:21:39;;;;;;;;;;;;;;;5.74;65.93;101585.88;5062046;28;1798;-81
2023/05/03 06:24:06;;;;;;;;;;;;;;;5.68;66.05;101587.34;5079670;28;5110;-80
2023/05/03 06:26:33;;;;;;;;;;;;;;;5.69;66.21;101589.00;5081088;28;1532;-82
2023/05/03 06:29:00;;;;;;;;;;;;;;;5.69;66.22;101583.66;5084225;28;1894;-82
2023/05/03 06:31:27;;;;;;;;;;;;;;;5.69;66.09;101589.00;5087213;28;1395;-81
2023/05/03 06:33:55;;;;;;;;;;;;;;;5.67;66.10;101591.00;5083417;28;1116;-81
2023/05/03 06:36:21;;;;;;;;;;;;;;;5.67;66.04;101593.66;5084881;28;1155;-81
2023/05/03 06:38:49;;;;;;;;;;;;;;;5.66;65.94;101592.00;5084152;28;1074;-84
2023/05/03 06:41:16;;;;;;;;;;;;;;;5.65;66.14;101596.53;5089078;28;1411;-82
2023/05/03 06:43:43;;;;;;;;;;;;;;;5.66;65.97;101595.50;5081620;28;1636;-82
2023/05/03 06:46:09;;;;;;;;;;;;;;;5.65;65.97;101601.88;5075213;28;1696;-82
2023/05/03 06:48:36;;;;;;;;;;;;;;;5.66;65.94;101600.03;5082985;28;1993;-82
2023/05/03 06:51:03;;;;;;;;;;;;;;;5.66;66.06;101603.53;5082382;28;1921;-82
2023/05/03 06:53:29;;;;;;;;;;;;;;;5.67;66.10;101602.53;5078459;28;1191;-83
2023/05/03 06:55:56;;;;;;;;;;;;;;;5.66;66.08;101603.53;5078559;28;5254;-81
2023/05/03 06:58:23;;;;;;;;;;;;;;;5.67;65.90;101601.69;5085033;28;1943;-82
2023/05/03 07:00:49;;;;;;;;;;;;;;;5.67;66.08;101605.19;5083703;28;2202;-83
2023/05/03 07:03:16;;;;;;;;;;;;;;;5.67;65.99;101602.53;5080199;28;2284;-83
2023/05/03 07:05:43;;;;;;;;;;;;;;;5.68;66.20;101608.72;5085835;28;1642;-83
2023/05/03 07:08:09;;;;;;;;;;;;;;;5.68;66.07;101606.88;5081645;28;1917;-82
2023/05/03 07:10:36;;;;;;;;;;;;;;;5.68;65.79;101622.09;5086082;28;1309;-84
2023/05/03 07:13:03;;;;;;;;;;;;;;;5.67;65.92;101610.53;5089724;28;1489;-83
2023/05/03 07:15:29;;;;;;;;;;;;;;;5.67;65.83;101615.88;5092728;28;4985;-82
2023/05/03 07:17:56;;;;;;;;;;;;;;;5.67;65.78;101610.53;5100971;28;1473;-82
2023/05/03 07:20:22;;;;;;;;;;;;;;;5.68;65.71;101611.41;5095500;28;2247;-84
2023/05/03 07:22:49;;;;;;;;;;;;;;;5.70;65.85;101617.41;5095243;28;1544;-84
2023/05/03 07:25:16;;;;;;;;;;;;;;;5.69;65.71;101616.56;5088545;28;1448;-84
2023/05/03 07:27:43;;;;;;;;;;;;;;;5.70;65.85;101614.72;5087402;28;5729;-86
2023/05/03 07:30:10;;;;;;;;;;;;;;;5.70;65.90;101622.75;5080182;28;1662;-85
2023/05/03 07:32:36;;;;;;;;;;;;;;;5.69;65.72;101616.56;5088011;28;5406;-84
2023/05/03 07:35:03;;;;;;;;;;;;;;;5.70;65.64;101625.41;5074498;28;1854;-84
2023/05/03 07:37:30;;;;;;;;;;;;;;;5.70;65.63;101615.56;5077683;28;1888;-85
2023/05/03 07:39:57;;;;;;;;;;;;;;;5.72;65.68;101612.75;5075196;28;1866;-84
2023/05/03 07:42:23;;;;;;;;;;;;;;;5.74;65.78;101620.63;5075881;28;1822;-85
2023/05/03 07:44:50;;;;;;;;;;;;;;;5.73;65.58;101621.59;5072565;28;5311;-85
2023/05/03 07:47:17;;;;;;;;;;;;;;;5.73;65.63;101613.56;5072853;28;5143;-86
2023/05/03 07:49:43;;;;;;;;;;;;;;;5.74;65.68;101617.94;5078289;28;2048;-86
2023/05/03 07:52:10;;;;;;;;;;;;;;;5.74;65.84;101618.78;5078132;28;2095;-85
2023/05/03 07:54:36;;;;;;;;;;;;;;;5.75;65.70;101617.75;5080440;28;1643;-85
2023/05/03 07:57:03;;;;;;;;;;;;;;;5.75;65.69;101617.75;5081664;28;1603;-84
2023/05/03 07:59:30;;;;;;;;;;;;;;;5.77;65.59;101613.09;5072792;28;1771;-86
2023/05/03 08:01:56;;;;;;;;;;;;;;;5.76;65.65;101610.56;5074165;28;1835;-84
2023/05/03 08:04:23;;;;;;;;;;;;;;;5.76;65.51;101614.06;5078062;28;4532;-84
2023/05/03 08:06:49;;;;;;;;;;;;;;;5.76;65.83;101622.09;5075305;28;2001;-83
2023/05/03 08:09:16;;;;;;;;;;;;;;;5.76;65.67;101624.78;5074373;28;5582;-83
2023/05/03 08:11:42;;;;;;;;;;;;;;;5.78;65.74;101627.28;5082134;28;1899;-84
2023/05/03 08:14:09;;;;;;;;;;;;;;;5.78;65.60;101625.47;5077088;28;1708;-83
2023/05/03 08:16:36;;;;;;;;;;;;;;;5.82;65.75;101620.63;5078017;28;1663;-83
2023/05/03 08:19:03;;;;;;;;;;;;;;;5.81;65.58;101622.47;5075783;28;1596;-83
2023/05/03 08:21:32;;;;;;;;;;;;;;;5.98;65.02;101623.38;5078713;28;2035;-83
2023/05/03 08:23:58;;;;;;;;;;;;;;;6.03;64.90;101618.38;5078896;28;1738;-84
2023/05/03 08:26:27;;;;;;;;;;;;;;;6.32;63.86;101623.28;5075712;28;5523;-84
2023/05/03 08:28:53;;;;;;;;;;;;;;;6.07;64.75;101625.06;5073528;28;1984;-84
2023/05/03 08:31:20;;;;;;;;;;;;;;;5.94;64.97;101629.19;5077836;28;1905;-84
2023/05/03 08:33:47;;;;;;;;;;;;;;;5.89;65.02;101618.97;5075398;28;1691;-84
2023/05/03 08:36:13;;;;;;;;;;;;;;;6.17;64.38;101624.06;5079187;28;1751;-85
2023/05/03 08:38:40;;;;;;;;;;;;;;;6.23;63.93;101624.25;5074819;28;1592;-82
2023/05/03 08:41:07;;;;;;;;;;;;;;;5.95;64.85;101626.38;5082874;28;1956;-85
2023/05/03 08:43:33;;;;;;;;;;;;;;;5.86;65.46;101621.97;5075747;28;1716;-84
2023/05/03 08:46:00;;;;;;;;;;;;;;;5.82;65.80;101624.13;5071582;28;1715;-84
2023/05/03 08:48:26;;;;;;;;;;;;;;;5.83;65.67;101625.81;5079299;28;2040;-84
2023/05/03 08:50:54;;;;;;;;;;;;;;;5.84;65.62;101619.47;5071978;28;2534;-85
2023/05/03 08:53:21;;;;;;;;;;;;;;;5.84;65.75;101626.66;5092108;28;1841;-85
2023/05/03 08:55:49;;;;;;;;;;;;;;;5.84;65.94;101632.00;5076672;28;1801;-85
2023/05/03 08:58:15;;;;;;;;;;;;;;;5.85;65.77;101630.97;5075156;28;1755;-85
2023/05/03 09:00:43;;;;;;;;;;;;;;;5.85;65.98;101630.97;5075894;28;1668;-83
2023/05/03 09:03:10;;;;;;;;;;;;;;;5.86;65.89;101638.03;5079406;28;1799;-83
2023/05/03 09:05:39;;;;;;;;;;;;;;;5.86;66.05;101627.34;5079213;28;1894;-84
2023/05/03 09:08:06;;;;;;;;;;;;;;;5.88;65.91;101630.66;5074106;28;1985;-86
2023/05/03 09:10:32;;;;;;;;;;;;;;;5.88;66.08;101634.19;5077504;28;1708;-84
2023/05/03 09:12:59;;;;;;;;;;;;;;;5.87;65.82;101627.16;5076956;28;1767;-86
2023/05/03 09:15:28;;;;;;;;;;;;;;;5.89;66.01;101627.00;5078537;28;1672;-84
2023/05/03 09:17:54;;;;;;;;;;;;;;;5.89;65.69;101632.34;5089134;28;1825;-85
2023/05/03 09:20:21;;;;;;;;;;;;;;;5.90;65.81;101629.50;5078906;28;1723;-83
2023/05/03 09:22:47;;;;;;;;;;;;;;;5.90;66.02;101634.84;5084981;28;1561;-85
2023/05/03 09:25:14;;;;;;;;;;;;;;;5.92;65.87;101626.69;5078956;28;1281;-85
2023/05/03 09:27:41;;;;;;;;;;;;;;;5.92;66.00;101630.19;5079875;28;1921;-86
2023/05/03 09:30:08;;;;;;;;;;;;;;;5.94;66.03;101626.53;5081225;28;1532;-84
2023/05/03 09:32:34;;;;;;;;;;;;;;;5.94;65.95;101635.38;5085051;28;1479;-83
2023/05/03 09:35:01;;;;;;;;;;;;;;;5.95;65.69;101634.41;5083884;28;1009;-85
2023/05/03 09:37:27;;;;;;;;;;;;;;;5.96;65.86;101641.41;5085688;28;1320;-86
2023/05/03 09:39:54;;;;;;;;;;;;;;;5.97;65.78;101637.75;5081913;28;1090;-85
2023/05/03 09:42:20;;;;;;;;;;;;;;;5.99;65.80;101637.59;5080944;28;1317;-85
2023/05/03 09:44:50;;;;;;;;;;;;;;;5.99;65.84;101634.91;5078498;28;1556;-85
2023/05/03 09:47:17;;;;;;;;;;;;;;;6.00;65.98;101636.56;5071242;28;5023;-85
2023/05/03 09:49:44;;;;;;;;;;;;;;;6.01;65.75;101641.78;5079368;28;4718;-85
2023/05/03 09:52:11;;;;;;;;;;;;;;;6.02;65.93;101634.59;5079973;28;1580;-86
2023/05/03 09:54:41;;;;;;;;;;;;;;;6.04;66.17;101635.25;5072968;28;1462;-86
2023/05/03 09:57:07;;;;;;;;;;;;;;;6.06;65.77;101633.25;5083035;28;1014;-85
2023/05/03 09:59:34;;;;;;;;;;;;;;;6.06;65.71;101634.09;5082684;28;1013;-86
2023/05/03 10:02:02;;;;;;;;;;;;;;;6.07;65.70;101643.78;5079190;28;1527;-85
2023/05/03 10:04:28;;;;;;;;;;;;;;;6.08;66.09;101639.28;5071788;28;4429;-86
2023/05/03 10:06:55;;;;;;;;;;;;;;;6.09;66.10;101644.47;5070110;28;1799;-85
2023/05/03 10:09:22;;;;;;;;;;;;;;;6.11;65.82;101649.66;5065781;28;1977;-86
2023/05/03 10:11:50;;;;;;;;;;;;;;;6.11;65.90;101646.97;5072443;28;1419;-85
2023/05/03 10:14:17;;;;;;;;;;;;;;;6.12;65.92;101646.81;5066604;28;1460;-86
2023/05/03 10:16:44;;;;;;;;;;;;;;;6.14;66.19;101646.63;5067815;28;1446;-84
2023/05/03 10:19:10;;;;;;;;;;;;;;;6.14;66.28;101652.00;5063062;28;1470;-86
2023/05/03 10:21:37;;;;;;;;;;;;;;;6.16;66.22;101646.50;5064394;28;1718;-84
2023/05/03 10:24:03;;;;;;;;;;;;;;;6.42;63.84;101657.91;5080466;28;1462;-86
2023/05/03 10:26:30;;;;;;;;;;;;;;;6.34;64.50;101650.69;5068834;28;1350;-84
2023/05/03 10:28:58;;;;;;;;;;;;;;;6.29;64.65;101652.19;5073149;28;1914;-87
2023/05/03 10:31:25;;;;;;;;;;;;;;;6.26;64.79;101656.03;5063831;28;1520;-86
2023/05/03 10:33:52;;;;;;;;;;;;;;;6.26;65.15;101653.34;5074709;28;1367;-85
2023/05/03 10:36:19;;;;;;;;;;;;;;;6.29;64.88;101646.84;5086194;28;1405;-85
2023/05/03 10:38:45;;;;;;;;;;;;;;;6.28;65.39;101648.69;5080958;28;1205;-85
2023/05/03 10:41:12;;;;;;;;;;;;;;;6.29;65.21;101647.66;5087708;28;1021;-84
2023/05/03 10:43:38;;;;;;;;;;;;;;;6.30;65.24;101645.84;5089624;28;944;-85
2023/05/03 10:46:05;;;;;;;;;;;;;;;6.31;65.17;101651.03;5086652;28;1049;-85
2023/05/03 10:48:32;;;;;;;;;;;;;;;6.31;65.37;101650.19;5087311;28;1914;-83
2023/05/03 10:50:58;;;;;;;;;;;;;;;6.32;65.37;101652.72;5087234;28;1120;-85
2023/05/03 10:53:26;;;;;;;;;;;;;;;6.32;65.55;101646.50;5090359;28;1167;-85
2023/05/03 10:55:53;;;;;;;;;;;;;;;6.34;65.71;101648.00;5090553;28;1076;-83
2023/05/03 10:58:20;;;;;;;;;;;;;;;6.34;65.63;101645.34;5086881;28;1308;-85
2023/05/03 11:00:47;;;;;;;;;;;;;;;6.35;65.67;101648.84;5085101;28;1017;-85
2023/05/03 11:03:13;;;;;;;;;;;;;;;6.36;65.80;101646.03;5084644;28;1117;-84
2023/05/03 11:05:40;;;;;;;;;;;;;;;6.37;65.98;101653.03;5084671;28;1284;-85
2023/05/03 11:08:06;;;;;;;;;;;;;;;6.39;66.09;101660.09;5086451;28;1946;-85
2023/05/03 11:10:33;;;;;;;;;;;;;;;6.40;65.83;101662.56;5086846;28;1202;-83
2023/05/03 11:12:59;;;;;;;;;;;;;;;6.40;66.28;101664.41;5088251;28;1112;-86
2023/05/03 11:15:26;;;;;;;;;;;;;;;6.41;66.02;101656.22;5086394;28;972;-86
2023/05/03 11:17:53;;;;;;;;;;;;;;;6.41;66.42;101656.22;5087282;28;1258;-86
2023/05/03 11:20:20;;;;;;;;;;;;;;;6.44;66.38;101660.41;5086328;28;1335;-84
2023/05/03 11:22:46;;;;;;;;;;;;;;;6.44;66.28;101663.94;5085237;28;1415;-84
2023/05/03 11:25:13;;;;;;;;;;;;;;;6.45;66.43;101665.59;5080134;28;1254;-84
2023/05/03 11:27:40;;;;;;;;;;;;;;;6.46;66.25;101661.09;5086797;28;1358;-85
2023/05/03 11:30:06;;;;;;;;;;;;;;;6.47;66.32;101658.25;5083343;28;1902;-84
2023/05/03 11:32:33;;;;;;;;;;;;;;;6.49;66.44;101658.06;5087011;28;1286;-84
2023/05/03 11:35:01;;;;;;;;;;;;;;;6.49;66.45;101656.22;5086797;28;1264;-84
2023/05/03 11:37:27;;;;;;;;;;;;;;;6.51;66.56;101656.06;5081756;28;1525;-85
2023/05/03 11:39:54;;;;;;;;;;;;;;;6.51;66.74;101654.22;5087443;28;1659;-86
2023/05/03 11:42:23;;;;;;;;;;;;;;;6.52;66.88;101653.22;5083103;28;2564;-86
2023/05/03 11:44:50;;;;;;;;;;;;;;;6.53;67.02;101648.69;5083238;28;1619;-86
2023/05/03 11:47:16;;;;;;;;;;;;;;;6.54;66.88;101651.22;5086045;28;1774;-86
2023/05/03 11:49:43;;;;;;;;;;;;;;;6.55;66.74;101650.22;5085174;28;1989;-86
2023/05/03 11:52:09;;;;;;;;;;;;;;;6.57;66.85;101648.22;5082248;28;1932;-86
2023/05/03 11:54:36;;;;;;;;;;;;;;;6.57;67.14;101648.22;5075200;28;1531;-86
2023/05/03 11:57:02;;;;;;;;;;;;;;;6.58;66.89;101641.84;5069674;28;1654;-87
2023/05/03 11:59:29;;;;;;;;;;;;;;;6.67;66.77;101641.84;5059522;28;1511;-85
2023/05/03 12:01:55;;;;;;;;;;;;;;;6.67;66.07;101644.53;5083401;28;1516;-85
2023/05/03 12:04:22;;;;;;;;;;;;;;;6.65;66.33;101647.38;5067322;28;1493;-84
2023/05/03 12:06:51;;;;;;;;;;;;;;;6.65;66.40;101642.03;5075459;28;1551;-85
2023/05/03 12:09:18;;;;;;;;;;;;;;;6.66;66.41;101645.53;5072827;28;1976;-85
2023/05/03 12:11:47;;;;;;;;;;;;;;;6.67;66.35;101641.84;5073569;28;1521;-85
2023/05/03 12:14:14;;;;;;;;;;;;;;;6.68;66.80;101646.22;5078814;28;1358;-85
2023/05/03 12:16:41;;;;;;;;;;;;;;;6.68;66.84;101647.06;5070293;28;5429;-86
2023/05/03 12:19:08;;;;;;;;;;;;;;;6.70;66.63;101653.06;5079211;28;5084;-86
2023/05/03 12:21:34;;;;;;;;;;;;;;;6.73;66.45;101660.75;5073471;28;1575;-86
2023/05/03 12:24:01;;;;;;;;;;;;;;;6.74;66.84;101662.44;5093254;28;1785;-86
2023/05/03 12:26:28;;;;;;;;;;;;;;;6.76;66.45;101670.28;5079686;28;1501;-86
2023/05/03 12:28:55;;;;;;;;;;;;;;;6.75;66.88;101671.31;5078860;28;1886;-85
2023/05/03 12:31:22;;;;;;;;;;;;;;;6.77;66.73;101663.97;5070332;28;1699;-85
2023/05/03 12:33:48;;;;;;;;;;;;;;;6.81;66.54;101674.16;5079628;28;1991;-85
2023/05/03 12:36:15;;;;;;;;;;;;;;;6.82;66.76;101672.28;5084586;28;1445;-87
2023/05/03 12:38:42;;;;;;;;;;;;;;;6.82;66.82;101677.66;5072967;28;1878;-86
2023/05/03 12:41:08;;;;;;;;;;;;;;;6.82;66.82;101675.84;5070395;28;1663;-86
2023/05/03 12:43:35;;;;;;;;;;;;;;;6.84;66.87;101675.66;5059476;28;1621;-86
2023/05/03 12:46:02;;;;;;;;;;;;;;;6.85;66.75;101679.16;5067070;28;1554;-86
2023/05/03 12:48:29;;;;;;;;;;;;;;;6.86;66.92;101678.19;5066961;28;1729;-86
2023/05/03 12:50:56;;;;;;;;;;;;;;;6.87;66.63;101675.31;5075508;28;1914;-86
2023/05/03 12:53:22;;;;;;;;;;;;;;;6.87;66.78;101663.78;5062471;28;1572;-86